sensor_id;sensor_type;location;lat;lon;timestamp;temperature;humidity
26707;DHT22;14319;49.422;10.934;2023-08-31T00:01:21;13.40;99.90
26707;DHT22;14319;49.422;10.934;2023-08-31T00:03:22;13.50;99.90
26707;DHT22;14319;49.422;10.934;2023-08-31T00:05:23;13.50;99.90
26707;DHT22;14319;49.422;10.934;2023-08-31T00:07:25;13.70;99.90
26707;DHT22;14319;49.422;10.934;2023-08-31T00:09:26;13.70;99.90
26707;DHT22;14319;49.422;10.934;2023-08-31T00:11:26;13.70;99.90
26707;DHT22;14319;49.422;10.934;2023-08-31T00:13:27;13.80;99.90
26707;DHT22;14319;49.422;10.934;2023-08-31T00:15:28;13.80;99.90
26707;DHT22;14319;49.422;10.934;2023-08-31T00:17:29;13.80;99.90
26707;DHT22;14319;49.422;10.934;2023-08-31T00:19:30;13.80;99.90
26707;DHT22;14319;49.422;10.934;2023-08-31T00:21:30;13.80;99.90
26707;DHT22;14319;49.422;10.934;2023-08-31T00:23:31;13.90;99.90
26707;DHT22;14319;49.422;10.934;2023-08-31T00:25:32;14.00;99.90
26707;DHT22;14319;49.422;10.934;2023-08-31T00:27:32;14.00;99.90
26707;DHT22;14319;49.422;10.934;2023-08-31T00:29:33;14.10;99.90
26707;DHT22;14319;49.422;10.934;2023-08-31T00:31:35;14.10;99.90
26707;DHT22;14319;49.422;10.934;2023-08-31T00:33:37;14.20;99.90
26707;DHT22;14319;49.422;10.934;2023-08-31T00:35:41;14.20;99.90
26707;DHT22;14319;49.422;10.934;2023-08-31T00:37:48;14.20;99.90
26707;DHT22;14319;49.422;10.934;2023-08-31T00:39:49;14.20;99.90
26707;DHT22;14319;49.422;10.934;2023-08-31T00:41:52;14.20;99.90
26707;DHT22;14319;49.422;10.934;2023-08-31T00:43:53;14.20;99.90
26707;DHT22;14319;49.422;10.934;2023-08-31T00:45:56;14.20;99.90
26707;DHT22;14319;49.422;10.934;2023-08-31T00:47:58;14.20;99.90
26707;DHT22;14319;49.422;10.934;2023-08-31T00:49:59;14.20;99.90
26707;DHT22;14319;49.422;10.934;2023-08-31T00:52:02;14.10;99.90
26707;DHT22;14319;49.422;10.934;2023-08-31T00:54:04;13.70;99.90
26707;DHT22;14319;49.422;10.934;2023-08-31T00:56:08;13.50;99.90
26707;DHT22;14319;49.422;10.934;2023-08-31T00:58:08;13.50;99.90
26707;DHT22;14319;49.422;10.934;2023-08-31T01:00:10;13.50;99.90
26707;DHT22;14319;49.422;10.934;2023-08-31T01:02:15;13.50;99.90
26707;DHT22;14319;49.422;10.934;2023-08-31T01:09:05;13.60;99.90
26707;DHT22;14319;49.422;10.934;2023-08-31T01:11:31;13.70;99.90
26707;DHT22;14319;49.422;10.934;2023-08-31T01:13:34;13.70;99.90
26707;DHT22;14319;49.422;10.934;2023-08-31T01:15:36;13.90;99.90
26707;DHT22;14319;49.422;10.934;2023-08-31T01:17:41;13.70;99.90
26707;DHT22;14319;49.422;10.934;2023-08-31T01:19:51;13.50;99.90
26707;DHT22;14319;49.422;10.934;2023-08-31T01:21:54;13.60;99.90
26707;DHT22;14319;49.422;10.934;2023-08-31T01:23:58;13.60;99.90
26707;DHT22;14319;49.422;10.934;2023-08-31T01:25:58;13.70;99.90
26707;DHT22;14319;49.422;10.934;2023-08-31T01:28:00;13.80;99.90
26707;DHT22;14319;49.422;10.934;2023-08-31T01:30:01;13.90;99.90
26707;DHT22;14319;49.422;10.934;2023-08-31T01:32:05;14.00;99.90
26707;DHT22;14319;49.422;10.934;2023-08-31T01:34:07;14.00;99.90
26707;DHT22;14319;49.422;10.934;2023-08-31T01:36:35;13.80;99.90
26707;DHT22;14319;49.422;10.934;2023-08-31T01:38:39;13.60;99.90
26707;DHT22;14319;49.422;10.934;2023-08-31T01:40:59;13.70;99.90
26707;DHT22;14319;49.422;10.934;2023-08-31T01:43:01;13.80;99.90
26707;DHT22;14319;49.422;10.934;2023-08-31T01:45:05;13.90;99.90
26707;DHT22;14319;49.422;10.934;2023-08-31T01:47:06;13.80;99.90
26707;DHT22;14319;49.422;10.934;2023-08-31T01:49:07;13.90;99.90
26707;DHT22;14319;49.422;10.934;2023-08-31T01:51:10;13.90;99.90
26707;DHT22;14319;49.422;10.934;2023-08-31T01:53:11;13.90;99.90
26707;DHT22;14319;49.422;10.934;2023-08-31T01:55:12;13.70;99.90
26707;DHT22;14319;49.422;10.934;2023-08-31T01:57:16;13.80;99.90
26707;DHT22;14319;49.422;10.934;2023-08-31T01:59:34;13.60;99.90
26707;DHT22;14319;49.422;10.934;2023-08-31T02:01:35;13.50;99.90
26707;DHT22;14319;49.422;10.934;2023-08-31T02:03:36;13.60;99.90
26707;DHT22;14319;49.422;10.934;2023-08-31T02:05:37;13.60;99.90
26707;DHT22;14319;49.422;10.934;2023-08-31T02:07:38;13.50;99.90
26707;DHT22;14319;49.422;10.934;2023-08-31T02:09:40;13.50;99.90
26707;DHT22;14319;49.422;10.934;2023-08-31T02:11:41;13.50;99.90
26707;DHT22;14319;49.422;10.934;2023-08-31T02:13:42;13.60;99.90
26707;DHT22;14319;49.422;10.934;2023-08-31T02:15:43;13.70;99.90
26707;DHT22;14319;49.422;10.934;2023-08-31T02:17:44;13.70;99.90
26707;DHT22;14319;49.422;10.934;2023-08-31T02:19:45;13.60;99.90
26707;DHT22;14319;49.422;10.934;2023-08-31T02:21:45;13.30;99.90
26707;DHT22;14319;49.422;10.934;2023-08-31T02:23:47;13.40;99.90
26707;DHT22;14319;49.422;10.934;2023-08-31T02:25:47;13.50;99.90
26707;DHT22;14319;49.422;10.934;2023-08-31T02:27:49;13.50;99.90
26707;DHT22;14319;49.422;10.934;2023-08-31T02:29:50;13.50;99.90
26707;DHT22;14319;49.422;10.934;2023-08-31T02:31:50;13.50;99.90
26707;DHT22;14319;49.422;10.934;2023-08-31T02:33:51;13.40;99.90
26707;DHT22;14319;49.422;10.934;2023-08-31T02:35:54;13.50;99.90
26707;DHT22;14319;49.422;10.934;2023-08-31T02:37:55;13.50;99.90
26707;DHT22;14319;49.422;10.934;2023-08-31T02:39:55;13.40;99.90
26707;DHT22;14319;49.422;10.934;2023-08-31T02:41:56;13.30;99.90
26707;DHT22;14319;49.422;10.934;2023-08-31T02:43:57;13.30;99.90
26707;DHT22;14319;49.422;10.934;2023-08-31T02:46:01;13.30;99.90
26707;DHT22;14319;49.422;10.934;2023-08-31T02:48:02;13.40;99.90
26707;DHT22;14319;49.422;10.934;2023-08-31T02:50:04;13.30;99.90
26707;DHT22;14319;49.422;10.934;2023-08-31T02:52:07;13.40;99.90
26707;DHT22;14319;49.422;10.934;2023-08-31T02:54:07;13.20;99.90
26707;DHT22;14319;49.422;10.934;2023-08-31T02:56:08;13.10;99.90
26707;DHT22;14319;49.422;10.934;2023-08-31T02:58:09;13.00;99.90
26707;DHT22;14319;49.422;10.934;2023-08-31T03:00:10;13.00;99.90
26707;DHT22;14319;49.422;10.934;2023-08-31T03:02:13;12.90;99.90
26707;DHT22;14319;49.422;10.934;2023-08-31T03:04:16;13.00;99.90
26707;DHT22;14319;49.422;10.934;2023-08-31T03:06:18;13.00;99.90
26707;DHT22;14319;49.422;10.934;2023-08-31T03:08:18;12.90;99.90
26707;DHT22;14319;49.422;10.934;2023-08-31T03:10:20;12.90;99.90
26707;DHT22;14319;49.422;10.934;2023-08-31T03:12:21;12.90;99.90
26707;DHT22;14319;49.422;10.934;2023-08-31T03:14:22;13.10;99.90
26707;DHT22;14319;49.422;10.934;2023-08-31T03:16:23;13.10;99.90
26707;DHT22;14319;49.422;10.934;2023-08-31T03:18:24;13.30;99.90
26707;DHT22;14319;49.422;10.934;2023-08-31T03:20:24;13.30;99.90
26707;DHT22;14319;49.422;10.934;2023-08-31T03:22:25;13.10;99.90
26707;DHT22;14319;49.422;10.934;2023-08-31T03:24:26;13.00;99.90
26707;DHT22;14319;49.422;10.934;2023-08-31T03:26:27;13.00;99.90
26707;DHT22;14319;49.422;10.934;2023-08-31T03:28:27;13.00;99.90
26707;DHT22;14319;49.422;10.934;2023-08-31T03:30:28;12.90;99.90
26707;DHT22;14319;49.422;10.934;2023-08-31T03:32:28;13.10;99.90
26707;DHT22;14319;49.422;10.934;2023-08-31T03:34:30;13.10;99.90
26707;DHT22;14319;49.422;10.934;2023-08-31T03:36:31;13.00;99.90
26707;DHT22;14319;49.422;10.934;2023-08-31T03:38:32;13.00;99.90
26707;DHT22;14319;49.422;10.934;2023-08-31T03:40:34;13.00;99.90
26707;DHT22;14319;49.422;10.934;2023-08-31T03:42:35;13.00;99.90
26707;DHT22;14319;49.422;10.934;2023-08-31T03:44:36;13.00;99.90
26707;DHT22;14319;49.422;10.934;2023-08-31T03:46:37;13.10;99.90
26707;DHT22;14319;49.422;10.934;2023-08-31T03:48:38;13.00;99.90
26707;DHT22;14319;49.422;10.934;2023-08-31T03:50:39;13.10;99.90
26707;DHT22;14319;49.422;10.934;2023-08-31T03:52:40;13.20;99.90
26707;DHT22;14319;49.422;10.934;2023-08-31T03:54:41;13.30;99.90
26707;DHT22;14319;49.422;10.934;2023-08-31T03:56:41;13.30;99.90
26707;DHT22;14319;49.422;10.934;2023-08-31T03:58:42;13.30;99.90
26707;DHT22;14319;49.422;10.934;2023-08-31T04:00:42;13.20;99.90
26707;DHT22;14319;49.422;10.934;2023-08-31T04:02:43;13.30;99.90
26707;DHT22;14319;49.422;10.934;2023-08-31T04:04:46;13.30;99.90
26707;DHT22;14319;49.422;10.934;2023-08-31T04:06:48;13.10;99.90
26707;DHT22;14319;49.422;10.934;2023-08-31T04:08:48;13.20;99.90
26707;DHT22;14319;49.422;10.934;2023-08-31T04:10:49;13.00;99.90
26707;DHT22;14319;49.422;10.934;2023-08-31T04:12:50;13.00;99.90
26707;DHT22;14319;49.422;10.934;2023-08-31T04:14:51;13.00;99.90
26707;DHT22;14319;49.422;10.934;2023-08-31T04:16:51;12.70;99.90
26707;DHT22;14319;49.422;10.934;2023-08-31T04:18:52;12.70;99.90
26707;DHT22;14319;49.422;10.934;2023-08-31T04:20:53;12.70;99.90
26707;DHT22;14319;49.422;10.934;2023-08-31T04:22:54;12.70;99.90
26707;DHT22;14319;49.422;10.934;2023-08-31T04:24:55;12.60;99.90
26707;DHT22;14319;49.422;10.934;2023-08-31T04:26:56;12.50;99.90
26707;DHT22;14319;49.422;10.934;2023-08-31T04:28:56;12.40;99.90
26707;DHT22;14319;49.422;10.934;2023-08-31T04:30:57;12.40;99.90
26707;DHT22;14319;49.422;10.934;2023-08-31T04:32:57;12.60;99.90
26707;DHT22;14319;49.422;10.934;2023-08-31T04:34:58;12.80;99.90
26707;DHT22;14319;49.422;10.934;2023-08-31T04:36:58;12.60;99.90
26707;DHT22;14319;49.422;10.934;2023-08-31T04:38:59;12.60;99.90
26707;DHT22;14319;49.422;10.934;2023-08-31T04:41:00;12.60;99.90
26707;DHT22;14319;49.422;10.934;2023-08-31T04:43:01;12.80;99.90
26707;DHT22;14319;49.422;10.934;2023-08-31T04:45:02;12.80;99.90
26707;DHT22;14319;49.422;10.934;2023-08-31T04:47:03;12.60;99.90
26707;DHT22;14319;49.422;10.934;2023-08-31T04:49:04;12.50;99.90
26707;DHT22;14319;49.422;10.934;2023-08-31T04:51:05;12.50;99.90
26707;DHT22;14319;49.422;10.934;2023-08-31T04:53:06;12.40;99.90
26707;DHT22;14319;49.422;10.934;2023-08-31T04:55:06;12.30;99.90
26707;DHT22;14319;49.422;10.934;2023-08-31T04:57:13;12.40;99.90
26707;DHT22;14319;49.422;10.934;2023-08-31T04:59:14;12.60;99.90
26707;DHT22;14319;49.422;10.934;2023-08-31T05:01:14;12.60;99.90
26707;DHT22;14319;49.422;10.934;2023-08-31T05:03:16;12.40;99.90
26707;DHT22;14319;49.422;10.934;2023-08-31T05:05:17;12.40;99.90
26707;DHT22;14319;49.422;10.934;2023-08-31T05:07:19;12.30;99.90
26707;DHT22;14319;49.422;10.934;2023-08-31T05:09:19;12.30;99.90
26707;DHT22;14319;49.422;10.934;2023-08-31T05:11:20;12.50;99.90
26707;DHT22;14319;49.422;10.934;2023-08-31T05:13:21;12.50;99.90
26707;DHT22;14319;49.422;10.934;2023-08-31T05:15:22;12.30;99.90
26707;DHT22;14319;49.422;10.934;2023-08-31T05:17:23;12.30;99.90
26707;DHT22;14319;49.422;10.934;2023-08-31T05:19:24;12.20;99.90
26707;DHT22;14319;49.422;10.934;2023-08-31T05:21:25;12.20;99.90
26707;DHT22;14319;49.422;10.934;2023-08-31T05:23:25;12.20;99.90
26707;DHT22;14319;49.422;10.934;2023-08-31T05:25:26;12.20;99.90
26707;DHT22;14319;49.422;10.934;2023-08-31T05:27:26;12.20;99.90
26707;DHT22;14319;49.422;10.934;2023-08-31T05:29:27;12.20;99.90
26707;DHT22;14319;49.422;10.934;2023-08-31T05:31:27;12.40;99.90
26707;DHT22;14319;49.422;10.934;2023-08-31T05:33:28;12.40;99.90
26707;DHT22;14319;49.422;10.934;2023-08-31T05:35:30;12.50;99.90
26707;DHT22;14319;49.422;10.934;2023-08-31T05:37:33;12.60;99.90
26707;DHT22;14319;49.422;10.934;2023-08-31T05:39:34;12.80;99.90
26707;DHT22;14319;49.422;10.934;2023-08-31T05:41:35;12.90;99.90
26707;DHT22;14319;49.422;10.934;2023-08-31T05:43:36;13.00;99.90
26707;DHT22;14319;49.422;10.934;2023-08-31T05:45:37;13.00;99.90
26707;DHT22;14319;49.422;10.934;2023-08-31T05:47:40;13.00;99.90
26707;DHT22;14319;49.422;10.934;2023-08-31T05:49:41;12.90;99.90
26707;DHT22;14319;49.422;10.934;2023-08-31T05:51:41;13.00;99.90
26707;DHT22;14319;49.422;10.934;2023-08-31T05:53:42;13.00;99.90
26707;DHT22;14319;49.422;10.934;2023-08-31T05:55:42;13.10;99.90
26707;DHT22;14319;49.422;10.934;2023-08-31T05:57:43;12.90;99.90
26707;DHT22;14319;49.422;10.934;2023-08-31T05:59:44;13.00;99.90
26707;DHT22;14319;49.422;10.934;2023-08-31T06:01:44;13.00;99.90
26707;DHT22;14319;49.422;10.934;2023-08-31T06:03:45;13.00;99.90
26707;DHT22;14319;49.422;10.934;2023-08-31T06:05:45;13.00;99.90
26707;DHT22;14319;49.422;10.934;2023-08-31T06:07:46;13.00;99.90
26707;DHT22;14319;49.422;10.934;2023-08-31T06:09:47;13.00;99.90
26707;DHT22;14319;49.422;10.934;2023-08-31T06:11:48;13.10;99.90
26707;DHT22;14319;49.422;10.934;2023-08-31T06:13:49;13.10;99.90
26707;DHT22;14319;49.422;10.934;2023-08-31T06:15:50;13.10;99.90
26707;DHT22;14319;49.422;10.934;2023-08-31T06:17:50;13.00;99.90
26707;DHT22;14319;49.422;10.934;2023-08-31T06:19:51;12.90;99.90
26707;DHT22;14319;49.422;10.934;2023-08-31T06:21:51;13.00;99.90
26707;DHT22;14319;49.422;10.934;2023-08-31T06:23:52;13.10;99.90
26707;DHT22;14319;49.422;10.934;2023-08-31T06:25:52;12.90;99.90
26707;DHT22;14319;49.422;10.934;2023-08-31T06:27:53;13.00;99.90
26707;DHT22;14319;49.422;10.934;2023-08-31T06:29:54;13.20;99.90
26707;DHT22;14319;49.422;10.934;2023-08-31T06:31:54;13.20;99.90
26707;DHT22;14319;49.422;10.934;2023-08-31T06:33:55;13.30;99.90
26707;DHT22;14319;49.422;10.934;2023-08-31T06:35:56;13.40;99.90
26707;DHT22;14319;49.422;10.934;2023-08-31T06:37:56;13.40;99.90
26707;DHT22;14319;49.422;10.934;2023-08-31T06:39:58;13.40;99.90
26707;DHT22;14319;49.422;10.934;2023-08-31T06:41:59;13.50;99.90
26707;DHT22;14319;49.422;10.934;2023-08-31T06:44:04;13.40;99.90
26707;DHT22;14319;49.422;10.934;2023-08-31T06:46:05;13.50;99.90
26707;DHT22;14319;49.422;10.934;2023-08-31T06:48:06;13.40;99.90
26707;DHT22;14319;49.422;10.934;2023-08-31T06:50:07;13.50;99.90
26707;DHT22;14319;49.422;10.934;2023-08-31T06:52:08;13.40;99.90
26707;DHT22;14319;49.422;10.934;2023-08-31T06:54:08;13.30;99.90
26707;DHT22;14319;49.422;10.934;2023-08-31T06:56:09;13.30;99.90
26707;DHT22;14319;49.422;10.934;2023-08-31T06:58:09;13.20;99.90
26707;DHT22;14319;49.422;10.934;2023-08-31T07:00:10;13.20;99.90
26707;DHT22;14319;49.422;10.934;2023-08-31T07:02:12;13.30;99.90
26707;DHT22;14319;49.422;10.934;2023-08-31T07:04:13;13.30;99.90
26707;DHT22;14319;49.422;10.934;2023-08-31T07:06:13;13.40;99.90
26707;DHT22;14319;49.422;10.934;2023-08-31T07:08:14;13.40;99.90
26707;DHT22;14319;49.422;10.934;2023-08-31T07:10:15;13.50;99.90
26707;DHT22;14319;49.422;10.934;2023-08-31T07:12:15;13.60;99.90
26707;DHT22;14319;49.422;10.934;2023-08-31T07:14:17;13.70;99.90
26707;DHT22;14319;49.422;10.934;2023-08-31T07:16:17;13.80;99.90
26707;DHT22;14319;49.422;10.934;2023-08-31T07:18:18;13.70;99.90
26707;DHT22;14319;49.422;10.934;2023-08-31T07:20:19;13.80;99.90
26707;DHT22;14319;49.422;10.934;2023-08-31T07:22:19;13.70;99.90
26707;DHT22;14319;49.422;10.934;2023-08-31T07:24:20;13.90;99.90
26707;DHT22;14319;49.422;10.934;2023-08-31T07:26:21;13.90;99.90
26707;DHT22;14319;49.422;10.934;2023-08-31T07:28:22;14.00;99.90
26707;DHT22;14319;49.422;10.934;2023-08-31T07:30:22;13.90;99.90
26707;DHT22;14319;49.422;10.934;2023-08-31T07:32:23;13.70;99.90
26707;DHT22;14319;49.422;10.934;2023-08-31T07:34:24;13.70;99.90
26707;DHT22;14319;49.422;10.934;2023-08-31T07:36:25;13.80;99.90
26707;DHT22;14319;49.422;10.934;2023-08-31T07:38:26;13.70;99.90
26707;DHT22;14319;49.422;10.934;2023-08-31T07:40:27;13.70;99.90
26707;DHT22;14319;49.422;10.934;2023-08-31T07:42:27;13.80;99.90
26707;DHT22;14319;49.422;10.934;2023-08-31T07:44:28;14.00;99.90
26707;DHT22;14319;49.422;10.934;2023-08-31T07:46:29;14.10;99.90
26707;DHT22;14319;49.422;10.934;2023-08-31T07:48:29;14.10;99.90
26707;DHT22;14319;49.422;10.934;2023-08-31T07:50:30;14.20;99.90
26707;DHT22;14319;49.422;10.934;2023-08-31T07:52:30;14.30;99.90
26707;DHT22;14319;49.422;10.934;2023-08-31T07:54:31;14.30;99.90
26707;DHT22;14319;49.422;10.934;2023-08-31T07:56:31;14.50;98.50
26707;DHT22;14319;49.422;10.934;2023-08-31T07:58:32;14.60;97.10
26707;DHT22;14319;49.422;10.934;2023-08-31T08:00:33;14.50;93.70
26707;DHT22;14319;49.422;10.934;2023-08-31T08:02:33;14.60;95.70
26707;DHT22;14319;49.422;10.934;2023-08-31T08:04:34;14.70;94.80
26707;DHT22;14319;49.422;10.934;2023-08-31T08:06:34;14.80;94.50
26707;DHT22;14319;49.422;10.934;2023-08-31T08:08:35;14.80;95.60
26707;DHT22;14319;49.422;10.934;2023-08-31T08:10:36;15.00;93.70
26707;DHT22;14319;49.422;10.934;2023-08-31T08:12:40;14.80;92.40
26707;DHT22;14319;49.422;10.934;2023-08-31T08:14:43;15.00;94.50
26707;DHT22;14319;49.422;10.934;2023-08-31T08:16:44;15.10;94.90
26707;DHT22;14319;49.422;10.934;2023-08-31T08:18:44;15.20;91.20
26707;DHT22;14319;49.422;10.934;2023-08-31T08:20:49;15.20;92.10
26707;DHT22;14319;49.422;10.934;2023-08-31T08:22:50;15.30;93.40
26707;DHT22;14319;49.422;10.934;2023-08-31T08:24:52;15.30;93.00
26707;DHT22;14319;49.422;10.934;2023-08-31T08:26:53;15.40;91.40
26707;DHT22;14319;49.422;10.934;2023-08-31T08:28:54;15.40;91.40
26707;DHT22;14319;49.422;10.934;2023-08-31T08:30:54;15.40;89.50
26707;DHT22;14319;49.422;10.934;2023-08-31T08:32:55;15.50;89.30
26707;DHT22;14319;49.422;10.934;2023-08-31T08:34:55;15.50;85.50
26707;DHT22;14319;49.422;10.934;2023-08-31T08:36:56;15.50;87.00
26707;DHT22;14319;49.422;10.934;2023-08-31T08:38:57;15.60;88.70
26707;DHT22;14319;49.422;10.934;2023-08-31T08:40:57;15.60;85.50
26707;DHT22;14319;49.422;10.934;2023-08-31T08:43:00;15.60;84.80
26707;DHT22;14319;49.422;10.934;2023-08-31T08:45:02;15.40;82.00
26707;DHT22;14319;49.422;10.934;2023-08-31T08:47:04;15.40;85.60
26707;DHT22;14319;49.422;10.934;2023-08-31T08:49:04;15.60;81.20
26707;DHT22;14319;49.422;10.934;2023-08-31T08:51:07;15.40;81.40
26707;DHT22;14319;49.422;10.934;2023-08-31T08:53:08;15.40;82.80
26707;DHT22;14319;49.422;10.934;2023-08-31T08:55:09;15.40;85.80
26707;DHT22;14319;49.422;10.934;2023-08-31T08:57:10;15.40;84.00
26707;DHT22;14319;49.422;10.934;2023-08-31T08:59:10;15.40;82.90
26707;DHT22;14319;49.422;10.934;2023-08-31T09:01:14;15.50;83.60
26707;DHT22;14319;49.422;10.934;2023-08-31T09:03:18;15.70;82.70
26707;DHT22;14319;49.422;10.934;2023-08-31T09:05:18;15.80;82.40
26707;DHT22;14319;49.422;10.934;2023-08-31T09:07:20;15.80;81.10
26707;DHT22;14319;49.422;10.934;2023-08-31T09:09:21;15.80;81.20
26707;DHT22;14319;49.422;10.934;2023-08-31T09:11:23;15.90;80.00
26707;DHT22;14319;49.422;10.934;2023-08-31T09:13:28;16.00;80.20
26707;DHT22;14319;49.422;10.934;2023-08-31T09:15:46;16.00;80.70
26707;DHT22;14319;49.422;10.934;2023-08-31T09:17:47;16.00;83.10
26707;DHT22;14319;49.422;10.934;2023-08-31T09:19:58;15.90;80.20
26707;DHT22;14319;49.422;10.934;2023-08-31T09:22:00;16.00;81.40
26707;DHT22;14319;49.422;10.934;2023-08-31T09:24:01;16.00;81.90
26707;DHT22;14319;49.422;10.934;2023-08-31T09:26:04;16.00;79.30
26707;DHT22;14319;49.422;10.934;2023-08-31T09:28:05;16.00;79.10
26707;DHT22;14319;49.422;10.934;2023-08-31T09:30:07;16.20;80.00
26707;DHT22;14319;49.422;10.934;2023-08-31T09:32:07;16.30;78.40
26707;DHT22;14319;49.422;10.934;2023-08-31T09:34:08;16.40;78.70
26707;DHT22;14319;49.422;10.934;2023-08-31T09:36:09;16.50;75.10
26707;DHT22;14319;49.422;10.934;2023-08-31T09:38:09;16.50;74.60
26707;DHT22;14319;49.422;10.934;2023-08-31T09:40:14;16.40;74.00
26707;DHT22;14319;49.422;10.934;2023-08-31T09:42:15;16.30;74.80
26707;DHT22;14319;49.422;10.934;2023-08-31T09:44:17;16.30;72.40
26707;DHT22;14319;49.422;10.934;2023-08-31T09:46:19;16.30;75.10
26707;DHT22;14319;49.422;10.934;2023-08-31T09:48:22;16.40;74.70
26707;DHT22;14319;49.422;10.934;2023-08-31T09:50:23;16.40;75.80
26707;DHT22;14319;49.422;10.934;2023-08-31T09:52:24;16.40;74.70
26707;DHT22;14319;49.422;10.934;2023-08-31T09:54:27;16.40;75.80
26707;DHT22;14319;49.422;10.934;2023-08-31T09:56:32;16.40;74.90
26707;DHT22;14319;49.422;10.934;2023-08-31T09:58:33;16.30;74.70
26707;DHT22;14319;49.422;10.934;2023-08-31T10:00:36;16.40;78.30
26707;DHT22;14319;49.422;10.934;2023-08-31T10:02:37;16.50;76.60
26707;DHT22;14319;49.422;10.934;2023-08-31T10:04:38;16.60;74.60
26707;DHT22;14319;49.422;10.934;2023-08-31T10:06:39;16.60;73.80
26707;DHT22;14319;49.422;10.934;2023-08-31T10:08:41;16.50;74.20
26707;DHT22;14319;49.422;10.934;2023-08-31T10:10:42;16.30;70.70
26707;DHT22;14319;49.422;10.934;2023-08-31T10:12:45;16.40;69.50
26707;DHT22;14319;49.422;10.934;2023-08-31T10:14:47;16.60;73.50
26707;DHT22;14319;49.422;10.934;2023-08-31T10:16:49;16.80;72.10
26707;DHT22;14319;49.422;10.934;2023-08-31T10:18:55;16.80;68.70
26707;DHT22;14319;49.422;10.934;2023-08-31T10:20:56;16.80;71.70
26707;DHT22;14319;49.422;10.934;2023-08-31T10:23:04;16.80;72.10
26707;DHT22;14319;49.422;10.934;2023-08-31T10:25:06;16.70;69.20
26707;DHT22;14319;49.422;10.934;2023-08-31T10:27:19;16.60;69.40
26707;DHT22;14319;49.422;10.934;2023-08-31T10:29:27;16.30;66.70
26707;DHT22;14319;49.422;10.934;2023-08-31T10:31:32;16.40;69.20
26707;DHT22;14319;49.422;10.934;2023-08-31T10:34:01;16.40;68.70
26707;DHT22;14319;49.422;10.934;2023-08-31T10:36:18;16.40;72.10
26707;DHT22;14319;49.422;10.934;2023-08-31T10:38:32;16.40;73.00
26707;DHT22;14319;49.422;10.934;2023-08-31T10:40:33;16.40;73.80
26707;DHT22;14319;49.422;10.934;2023-08-31T10:42:44;16.60;73.30
26707;DHT22;14319;49.422;10.934;2023-08-31T10:44:45;16.70;74.30
26707;DHT22;14319;49.422;10.934;2023-08-31T10:46:46;16.80;75.30
26707;DHT22;14319;49.422;10.934;2023-08-31T10:48:57;16.90;74.30
26707;DHT22;14319;49.422;10.934;2023-08-31T10:50:59;16.90;74.40
26707;DHT22;14319;49.422;10.934;2023-08-31T10:53:08;16.90;73.90
26707;DHT22;14319;49.422;10.934;2023-08-31T10:55:09;16.90;73.60
26707;DHT22;14319;49.422;10.934;2023-08-31T10:57:09;16.90;73.60
26707;DHT22;14319;49.422;10.934;2023-08-31T10:59:13;16.70;74.10
26707;DHT22;14319;49.422;10.934;2023-08-31T11:01:14;16.60;74.70
26707;DHT22;14319;49.422;10.934;2023-08-31T11:03:15;16.70;76.20
26707;DHT22;14319;49.422;10.934;2023-08-31T11:05:17;16.60;74.20
26707;DHT22;14319;49.422;10.934;2023-08-31T11:07:19;16.40;73.60
26707;DHT22;14319;49.422;10.934;2023-08-31T11:09:21;16.70;76.50
26707;DHT22;14319;49.422;10.934;2023-08-31T11:11:23;17.00;76.20
26707;DHT22;14319;49.422;10.934;2023-08-31T11:13:24;17.10;74.80
26707;DHT22;14319;49.422;10.934;2023-08-31T11:15:26;17.30;71.80
26707;DHT22;14319;49.422;10.934;2023-08-31T11:17:27;17.10;70.20
26707;DHT22;14319;49.422;10.934;2023-08-31T11:19:28;17.30;71.40
26707;DHT22;14319;49.422;10.934;2023-08-31T11:21:28;17.50;70.20
26707;DHT22;14319;49.422;10.934;2023-08-31T11:23:31;17.40;69.90
26707;DHT22;14319;49.422;10.934;2023-08-31T11:25:32;17.50;67.90
26707;DHT22;14319;49.422;10.934;2023-08-31T11:27:33;17.50;64.60
26707;DHT22;14319;49.422;10.934;2023-08-31T11:29:37;17.50;67.10
26707;DHT22;14319;49.422;10.934;2023-08-31T11:31:38;17.60;68.00
26707;DHT22;14319;49.422;10.934;2023-08-31T11:33:40;17.70;67.50
26707;DHT22;14319;49.422;10.934;2023-08-31T11:35:43;17.80;67.70
26707;DHT22;14319;49.422;10.934;2023-08-31T11:37:49;17.80;68.60
26707;DHT22;14319;49.422;10.934;2023-08-31T11:39:50;17.60;67.90
26707;DHT22;14319;49.422;10.934;2023-08-31T11:41:51;17.60;69.40
26707;DHT22;14319;49.422;10.934;2023-08-31T11:43:52;17.50;68.90
26707;DHT22;14319;49.422;10.934;2023-08-31T11:45:53;17.60;70.30
26707;DHT22;14319;49.422;10.934;2023-08-31T11:47:54;17.60;70.00
26707;DHT22;14319;49.422;10.934;2023-08-31T11:49:55;17.40;70.60
26707;DHT22;14319;49.422;10.934;2023-08-31T11:51:56;17.20;69.70
26707;DHT22;14319;49.422;10.934;2023-08-31T11:53:57;17.40;69.60
26707;DHT22;14319;49.422;10.934;2023-08-31T11:56:02;17.40;69.70
26707;DHT22;14319;49.422;10.934;2023-08-31T11:58:03;17.20;70.90
26707;DHT22;14319;49.422;10.934;2023-08-31T12:00:08;17.30;73.30
26707;DHT22;14319;49.422;10.934;2023-08-31T12:02:11;17.40;72.70
26707;DHT22;14319;49.422;10.934;2023-08-31T12:04:12;17.40;72.60
26707;DHT22;14319;49.422;10.934;2023-08-31T12:06:17;17.40;72.60
26707;DHT22;14319;49.422;10.934;2023-08-31T12:08:26;17.60;72.90
26707;DHT22;14319;49.422;10.934;2023-08-31T12:10:26;17.60;71.80
26707;DHT22;14319;49.422;10.934;2023-08-31T12:12:27;17.60;69.80
26707;DHT22;14319;49.422;10.934;2023-08-31T12:14:29;17.30;68.40
26707;DHT22;14319;49.422;10.934;2023-08-31T12:16:33;17.10;69.40
26707;DHT22;14319;49.422;10.934;2023-08-31T12:18:37;16.90;69.50
26707;DHT22;14319;49.422;10.934;2023-08-31T12:20:49;17.00;71.90
26707;DHT22;14319;49.422;10.934;2023-08-31T12:22:51;16.90;70.80
26707;DHT22;14319;49.422;10.934;2023-08-31T12:24:51;17.10;72.50
26707;DHT22;14319;49.422;10.934;2023-08-31T12:26:52;17.00;71.90
26707;DHT22;14319;49.422;10.934;2023-08-31T12:28:56;17.10;70.90
26707;DHT22;14319;49.422;10.934;2023-08-31T12:30:57;17.20;72.30
26707;DHT22;14319;49.422;10.934;2023-08-31T12:32:57;17.30;72.20
26707;DHT22;14319;49.422;10.934;2023-08-31T12:34:58;17.40;72.50
26707;DHT22;14319;49.422;10.934;2023-08-31T12:36:58;17.60;73.40
26707;DHT22;14319;49.422;10.934;2023-08-31T12:39:04;17.70;70.90
26707;DHT22;14319;49.422;10.934;2023-08-31T12:41:07;17.80;68.60
26707;DHT22;14319;49.422;10.934;2023-08-31T12:43:08;17.80;69.30